VLG415M EGKK-LEAL
Flight info
| Callsign | VLG415M |
|---|---|
| Flight time | N/A |
| Altitude | 35000 |
| Route | SFD Y47 BENBO UY47 DRAKE L151 SITET UN859 SOPIL DCT BALAN DCT LMG DCT PIMQO DCT AGN DCT ANETO DCT POSSY DCT XIMPE DCT RIMES N860 VLC |
| Aircraft | A320/M-SDE3FGHIRWY/LB1 |
Departure
| Time | 2026-05-05 13:50 |
|---|---|
| Airport | London Gatwick Airport (EGKK) |
Arrival
| Time | N/A |
|---|---|
| Airport | Alicante-Elche Miguel Hernández Airport (LEAL) |
| Time | Latitude | Longitude | Altitude | Speed | Heading |
|---|---|---|---|---|---|
| 2026-05-05 13:10 | 51.16184 | -0.18043 | 204 ft | 0 kts | 77° |
| 2026-05-05 13:36 | 51.16179 | -0.18074 | 204 ft | 4 kts | 77° |
| 2026-05-05 13:36 | 51.16174 | -0.18116 | 204 ft | 4 kts | 77° |
| 2026-05-05 13:36 | 51.16169 | -0.18150 | 204 ft | 4 kts | 80° |
| 2026-05-05 13:36 | 51.16172 | -0.18185 | 204 ft | 4 kts | 139° |
| 2026-05-05 13:37 | 51.16193 | -0.18200 | 204 ft | 4 kts | 167° |
| 2026-05-05 13:37 | 51.16202 | -0.18203 | 204 ft | 0 kts | 167° |
| 2026-05-05 13:40 | 51.16193 | -0.18200 | 204 ft | 2 kts | 167° |
| 2026-05-05 13:40 | 51.16173 | -0.18193 | 204 ft | 4 kts | 167° |
| 2026-05-05 13:40 | 51.16139 | -0.18181 | 204 ft | 6 kts | 168° |
| 2026-05-05 13:41 | 51.16093 | -0.18165 | 204 ft | 8 kts | 167° |
| 2026-05-05 13:41 | 51.16034 | -0.18145 | 203 ft | 10 kts | 167° |
| 2026-05-05 13:41 | 51.15960 | -0.18119 | 203 ft | 12 kts | 167° |
| 2026-05-05 13:41 | 51.15874 | -0.18089 | 203 ft | 14 kts | 168° |
| 2026-05-05 13:42 | 51.15779 | -0.18056 | 203 ft | 13 kts | 167° |
| 2026-05-05 13:42 | 51.15698 | -0.18048 | 203 ft | 11 kts | 209° |
| 2026-05-05 13:42 | 51.15670 | -0.18170 | 203 ft | 13 kts | 257° |
| 2026-05-05 13:42 | 51.15649 | -0.18318 | 203 ft | 15 kts | 257° |
| 2026-05-05 13:43 | 51.15626 | -0.18485 | 203 ft | 16 kts | 257° |
| 2026-05-05 13:43 | 51.15601 | -0.18671 | 203 ft | 18 kts | 258° |
| 2026-05-05 13:43 | 51.15570 | -0.18809 | 203 ft | 11 kts | 221° |
| 2026-05-05 13:43 | 51.15493 | -0.18808 | 203 ft | 12 kts | 168° |
| 2026-05-05 13:44 | 51.15405 | -0.18777 | 203 ft | 14 kts | 167° |
| 2026-05-05 13:44 | 51.15305 | -0.18742 | 204 ft | 16 kts | 167° |
| 2026-05-05 13:44 | 51.15207 | -0.18708 | 204 ft | 10 kts | 167° |
| 2026-05-05 13:44 | 51.15137 | -0.18721 | 203 ft | 12 kts | 226° |
| 2026-05-05 13:45 | 51.15113 | -0.18853 | 203 ft | 13 kts | 257° |
| 2026-05-05 13:45 | 51.15093 | -0.19002 | 204 ft | 15 kts | 258° |
| 2026-05-05 13:45 | 51.15070 | -0.19168 | 204 ft | 16 kts | 257° |
| 2026-05-05 13:45 | 51.15045 | -0.19351 | 204 ft | 18 kts | 258° |
| 2026-05-05 13:46 | 51.15024 | -0.19500 | 204 ft | 5 kts | 257° |
| 2026-05-05 13:46 | 51.15015 | -0.19568 | 204 ft | 8 kts | 257° |
| 2026-05-05 13:46 | 51.14998 | -0.19691 | 204 ft | 14 kts | 258° |
| 2026-05-05 13:46 | 51.14983 | -0.19797 | 204 ft | 15 kts | 258° |
| 2026-05-05 13:47 | 51.14959 | -0.19975 | 203 ft | 18 kts | 257° |
| 2026-05-05 13:47 | 51.14931 | -0.20119 | 203 ft | 11 kts | 233° |
| 2026-05-05 13:47 | 51.14853 | -0.20153 | 202 ft | 14 kts | 218° |
| 2026-05-05 13:47 | 51.14822 | -0.20315 | 201 ft | 18 kts | 257° |
| 2026-05-05 13:48 | 51.14790 | -0.20534 | 203 ft | 23 kts | 257° |
| 2026-05-05 13:48 | 51.14753 | -0.20807 | 203 ft | 26 kts | 258° |
| 2026-05-05 13:48 | 51.14713 | -0.21089 | 204 ft | 27 kts | 257° |
| 2026-05-05 13:48 | 51.14682 | -0.21290 | 204 ft | 9 kts | 251° |
| 2026-05-05 13:49 | 51.14624 | -0.21330 | 204 ft | 11 kts | 169° |
| 2026-05-05 13:49 | 51.14549 | -0.21279 | 202 ft | 13 kts | 140° |
| 2026-05-05 13:49 | 51.14525 | -0.21133 | 203 ft | 15 kts | 76° |
| 2026-05-05 13:49 | 51.14574 | -0.20778 | 205 ft | 63 kts | 78° |
| 2026-05-05 13:50 | 51.14709 | -0.19770 | 205 ft | 121 kts | 78° |
| 2026-05-05 13:50 | 51.14923 | -0.18219 | 205 ft | 165 kts | 77° |
| 2026-05-05 13:50 | 51.15180 | -0.16328 | 511 ft | 179 kts | 78° |
| 2026-05-05 13:50 | 51.15454 | -0.14355 | 1079 ft | 184 kts | 78° |
| 2026-05-05 13:51 | 51.15739 | -0.12343 | 1656 ft | 187 kts | 77° |
| 2026-05-05 13:51 | 51.16023 | -0.10361 | 2072 ft | 195 kts | 78° |
| 2026-05-05 13:51 | 51.16283 | -0.08153 | 2393 ft | 211 kts | 86° |
| 2026-05-05 13:51 | 51.15941 | -0.05841 | 2742 ft | 224 kts | 125° |
| 2026-05-05 13:52 | 51.14709 | -0.04251 | 3121 ft | 239 kts | 159° |
| 2026-05-05 13:52 | 51.13047 | -0.03593 | 3653 ft | 254 kts | 172° |
| 2026-05-05 13:52 | 51.11253 | -0.03271 | 4251 ft | 266 kts | 176° |
| 2026-05-05 13:52 | 51.09371 | -0.02995 | 4892 ft | 277 kts | 174° |
| 2026-05-05 13:53 | 51.07449 | -0.02653 | 5739 ft | 275 kts | 172° |
| 2026-05-05 13:53 | 51.05586 | -0.02082 | 6028 ft | 280 kts | 166° |
| 2026-05-05 13:53 | 51.03719 | -0.01218 | 6065 ft | 279 kts | 162° |
| 2026-05-05 13:53 | 51.01876 | -0.00245 | 6067 ft | 279 kts | 161° |
| 2026-05-05 13:54 | 51.00042 | 0.00739 | 6069 ft | 279 kts | 162° |
| 2026-05-05 13:54 | 50.98197 | 0.01699 | 6070 ft | 279 kts | 162° |
| 2026-05-05 13:54 | 50.96352 | 0.02626 | 6069 ft | 278 kts | 163° |
| 2026-05-05 13:54 | 50.94501 | 0.03529 | 6069 ft | 278 kts | 163° |
| 2026-05-05 13:55 | 50.92644 | 0.04416 | 6069 ft | 279 kts | 163° |
| 2026-05-05 13:55 | 50.90787 | 0.05294 | 6070 ft | 279 kts | 164° |
| 2026-05-05 13:55 | 50.88930 | 0.06168 | 6070 ft | 278 kts | 164° |
| 2026-05-05 13:55 | 50.87074 | 0.07040 | 6069 ft | 278 kts | 164° |
| 2026-05-05 13:56 | 50.85216 | 0.07910 | 6070 ft | 278 kts | 164° |
| 2026-05-05 13:56 | 50.83356 | 0.08775 | 6070 ft | 279 kts | 164° |
| 2026-05-05 13:56 | 50.81495 | 0.09638 | 6069 ft | 278 kts | 166° |
| 2026-05-05 13:56 | 50.79561 | 0.09856 | 6495 ft | 281 kts | 186° |
| 2026-05-05 13:57 | 50.77609 | 0.09566 | 7291 ft | 283 kts | 185° |
| 2026-05-05 13:57 | 50.75640 | 0.09295 | 8005 ft | 286 kts | 185° |
| 2026-05-05 13:57 | 50.73647 | 0.09024 | 8670 ft | 289 kts | 185° |
| 2026-05-05 13:57 | 50.71630 | 0.08747 | 9307 ft | 292 kts | 185° |
| 2026-05-05 13:58 | 50.69594 | 0.08461 | 9920 ft | 296 kts | 185° |
| 2026-05-05 13:58 | 50.67520 | 0.08168 | 10320 ft | 307 kts | 185° |
| 2026-05-05 13:58 | 50.65351 | 0.07859 | 10448 ft | 326 kts | 185° |
| 2026-05-05 13:58 | 50.63030 | 0.07525 | 10579 ft | 343 kts | 185° |
| 2026-05-05 13:59 | 50.58157 | 0.06815 | 11340 ft | 356 kts | 185° |
| 2026-05-05 13:59 | 50.55673 | 0.06456 | 11813 ft | 360 kts | 185° |
| 2026-05-05 14:00 | 50.50652 | 0.05747 | 12718 ft | 365 kts | 185° |
| 2026-05-05 14:00 | 50.48108 | 0.05386 | 13147 ft | 368 kts | 185° |
| 2026-05-05 14:00 | 50.45548 | 0.05022 | 13561 ft | 371 kts | 185° |
| 2026-05-05 14:00 | 50.42968 | 0.04656 | 13961 ft | 373 kts | 185° |
| 2026-05-05 14:01 | 50.40373 | 0.04289 | 14347 ft | 376 kts | 185° |
| 2026-05-05 14:01 | 50.37760 | 0.03920 | 14721 ft | 378 kts | 185° |
| 2026-05-05 14:01 | 50.35130 | 0.03553 | 15084 ft | 381 kts | 185° |
| 2026-05-05 14:01 | 50.32482 | 0.03180 | 15438 ft | 383 kts | 185° |
| 2026-05-05 14:02 | 50.29820 | 0.02801 | 15782 ft | 385 kts | 185° |
| 2026-05-05 14:02 | 50.27141 | 0.02415 | 16117 ft | 388 kts | 185° |
| 2026-05-05 14:02 | 50.24443 | 0.02029 | 16445 ft | 390 kts | 185° |
| 2026-05-05 14:02 | 50.21735 | 0.01644 | 16764 ft | 392 kts | 185° |
| 2026-05-05 14:03 | 50.19010 | 0.01259 | 17077 ft | 394 kts | 185° |
| 2026-05-05 14:03 | 50.16269 | 0.00874 | 17386 ft | 397 kts | 185° |
| 2026-05-05 14:03 | 50.13512 | 0.00488 | 17690 ft | 399 kts | 185° |
| 2026-05-05 14:03 | 50.10735 | 0.00258 | 17982 ft | 401 kts | 178° |
| 2026-05-05 14:04 | 50.07961 | 0.00803 | 18272 ft | 404 kts | 167° |
| 2026-05-05 14:04 | 50.05237 | 0.01887 | 18557 ft | 406 kts | 166° |
| 2026-05-05 14:04 | 50.02493 | 0.02983 | 18840 ft | 408 kts | 166° |
| 2026-05-05 14:04 | 49.99741 | 0.04076 | 19115 ft | 410 kts | 166° |
| 2026-05-05 14:05 | 49.96972 | 0.05169 | 19386 ft | 412 kts | 166° |
| 2026-05-05 14:05 | 49.94188 | 0.06256 | 19651 ft | 414 kts | 166° |
| 2026-05-05 14:05 | 49.91388 | 0.07339 | 19912 ft | 415 kts | 166° |
| 2026-05-05 14:05 | 49.88579 | 0.08426 | 20168 ft | 417 kts | 166° |
| 2026-05-05 14:06 | 49.85755 | 0.09527 | 20417 ft | 419 kts | 166° |
| 2026-05-05 14:06 | 49.82919 | 0.10636 | 20658 ft | 421 kts | 166° |
| 2026-05-05 14:06 | 49.80072 | 0.11750 | 20892 ft | 423 kts | 166° |
| 2026-05-05 14:06 | 49.77215 | 0.12872 | 21116 ft | 425 kts | 166° |
| 2026-05-05 14:07 | 49.74346 | 0.13995 | 21329 ft | 426 kts | 166° |
| 2026-05-05 14:07 | 49.71469 | 0.15112 | 21529 ft | 428 kts | 166° |
| 2026-05-05 14:07 | 49.68574 | 0.16230 | 21722 ft | 429 kts | 166° |
| 2026-05-05 14:07 | 49.65678 | 0.17363 | 21906 ft | 431 kts | 166° |
| 2026-05-05 14:08 | 49.62773 | 0.18529 | 22079 ft | 432 kts | 165° |
| 2026-05-05 14:08 | 49.59861 | 0.19716 | 22246 ft | 433 kts | 165° |
| 2026-05-05 14:08 | 49.56944 | 0.20911 | 22403 ft | 434 kts | 165° |
| 2026-05-05 14:08 | 49.54016 | 0.22104 | 22557 ft | 436 kts | 165° |
| 2026-05-05 14:09 | 49.51082 | 0.23289 | 22706 ft | 437 kts | 166° |
| 2026-05-05 14:09 | 49.48138 | 0.24470 | 22849 ft | 438 kts | 166° |
| 2026-05-05 14:09 | 49.45183 | 0.25651 | 22990 ft | 439 kts | 166° |
| 2026-05-05 14:09 | 49.42225 | 0.26833 | 23122 ft | 440 kts | 166° |
| 2026-05-05 14:10 | 49.39258 | 0.28017 | 23251 ft | 441 kts | 166° |
| 2026-05-05 14:10 | 49.36283 | 0.29201 | 23377 ft | 442 kts | 166° |
| 2026-05-05 14:10 | 49.33301 | 0.30384 | 23502 ft | 443 kts | 166° |